sensor_id;sensor_type;location;lat;lon;timestamp;P1;durP1;ratioP1;P2;durP2;ratioP2
8327;SDS011;4201;48.754;8.864;2023-08-21T00:00:06;13.17;;;10.93;;
8327;SDS011;4201;48.754;8.864;2023-08-21T00:02:33;12.97;;;10.90;;
8327;SDS011;4201;48.754;8.864;2023-08-21T00:04:59;12.90;;;9.63;;
8327;SDS011;4201;48.754;8.864;2023-08-21T00:07:25;12.37;;;9.87;;
8327;SDS011;4201;48.754;8.864;2023-08-21T00:09:53;16.00;;;11.17;;
8327;SDS011;4201;48.754;8.864;2023-08-21T00:12:19;11.50;;;10.40;;
8327;SDS011;4201;48.754;8.864;2023-08-21T00:14:45;14.10;;;9.80;;
8327;SDS011;4201;48.754;8.864;2023-08-21T00:17:12;11.63;;;10.43;;
8327;SDS011;4201;48.754;8.864;2023-08-21T00:19:38;14.73;;;10.90;;
8327;SDS011;4201;48.754;8.864;2023-08-21T00:22:04;12.97;;;10.17;;
8327;SDS011;4201;48.754;8.864;2023-08-21T00:24:30;13.30;;;10.10;;
8327;SDS011;4201;48.754;8.864;2023-08-21T00:26:58;14.27;;;10.43;;
8327;SDS011;4201;48.754;8.864;2023-08-21T00:29:25;15.70;;;9.93;;
8327;SDS011;4201;48.754;8.864;2023-08-21T00:31:51;11.33;;;10.20;;
8327;SDS011;4201;48.754;8.864;2023-08-21T00:34:17;12.60;;;9.43;;
8327;SDS011;4201;48.754;8.864;2023-08-21T00:36:43;16.43;;;10.47;;
8327;SDS011;4201;48.754;8.864;2023-08-21T00:39:10;10.47;;;9.37;;
8327;SDS011;4201;48.754;8.864;2023-08-21T00:41:36;13.17;;;9.90;;
8327;SDS011;4201;48.754;8.864;2023-08-21T00:44:04;11.87;;;10.00;;
8327;SDS011;4201;48.754;8.864;2023-08-21T00:46:30;12.50;;;10.60;;
8327;SDS011;4201;48.754;8.864;2023-08-21T00:48:56;14.40;;;10.83;;
8327;SDS011;4201;48.754;8.864;2023-08-21T00:51:23;12.37;;;10.90;;
8327;SDS011;4201;48.754;8.864;2023-08-21T00:53:50;11.90;;;10.70;;
8327;SDS011;4201;48.754;8.864;2023-08-21T00:56:16;14.87;;;11.70;;
8327;SDS011;4201;48.754;8.864;2023-08-21T00:58:42;11.83;;;10.60;;
8327;SDS011;4201;48.754;8.864;2023-08-21T01:01:10;15.60;;;11.33;;
8327;SDS011;4201;48.754;8.864;2023-08-21T01:03:37;11.60;;;9.40;;
8327;SDS011;4201;48.754;8.864;2023-08-21T01:06:04;11.80;;;10.60;;
8327;SDS011;4201;48.754;8.864;2023-08-21T01:08:33;12.63;;;9.97;;
8327;SDS011;4201;48.754;8.864;2023-08-21T01:11:02;11.53;;;10.43;;
8327;SDS011;4201;48.754;8.864;2023-08-21T01:13:34;12.23;;;10.63;;
8327;SDS011;4201;48.754;8.864;2023-08-21T01:16:03;12.70;;;11.40;;
8327;SDS011;4201;48.754;8.864;2023-08-21T01:18:32;15.00;;;10.30;;
8327;SDS011;4201;48.754;8.864;2023-08-21T01:21:01;14.63;;;10.23;;
8327;SDS011;4201;48.754;8.864;2023-08-21T01:23:31;12.37;;;10.13;;
8327;SDS011;4201;48.754;8.864;2023-08-21T01:25:57;12.37;;;10.00;;
8327;SDS011;4201;48.754;8.864;2023-08-21T01:28:23;12.30;;;10.90;;
8327;SDS011;4201;48.754;8.864;2023-08-21T01:30:50;13.77;;;11.60;;
8327;SDS011;4201;48.754;8.864;2023-08-21T01:33:18;12.60;;;11.30;;
8327;SDS011;4201;48.754;8.864;2023-08-21T01:35:45;13.10;;;11.70;;
8327;SDS011;4201;48.754;8.864;2023-08-21T01:38:12;21.53;;;12.90;;
8327;SDS011;4201;48.754;8.864;2023-08-21T01:40:39;15.77;;;11.63;;
8327;SDS011;4201;48.754;8.864;2023-08-21T01:43:06;12.97;;;11.70;;
8327;SDS011;4201;48.754;8.864;2023-08-21T01:45:32;12.53;;;10.80;;
8327;SDS011;4201;48.754;8.864;2023-08-21T01:47:58;13.03;;;11.70;;
8327;SDS011;4201;48.754;8.864;2023-08-21T01:50:25;13.23;;;11.80;;
8327;SDS011;4201;48.754;8.864;2023-08-21T01:52:51;14.40;;;10.60;;
8327;SDS011;4201;48.754;8.864;2023-08-21T01:55:17;13.70;;;12.20;;
8327;SDS011;4201;48.754;8.864;2023-08-21T01:57:45;13.33;;;11.37;;
8327;SDS011;4201;48.754;8.864;2023-08-21T02:00:12;16.50;;;11.60;;
8327;SDS011;4201;48.754;8.864;2023-08-21T02:02:38;13.50;;;11.17;;
8327;SDS011;4201;48.754;8.864;2023-08-21T02:05:06;12.50;;;11.20;;
8327;SDS011;4201;48.754;8.864;2023-08-21T02:07:32;17.70;;;12.03;;
8327;SDS011;4201;48.754;8.864;2023-08-21T02:09:58;14.13;;;11.40;;
8327;SDS011;4201;48.754;8.864;2023-08-21T02:12:25;16.97;;;11.20;;
8327;SDS011;4201;48.754;8.864;2023-08-21T02:14:53;14.93;;;11.60;;
8327;SDS011;4201;48.754;8.864;2023-08-21T02:17:19;18.70;;;12.60;;
8327;SDS011;4201;48.754;8.864;2023-08-21T02:19:45;15.27;;;12.27;;
8327;SDS011;4201;48.754;8.864;2023-08-21T02:22:11;17.80;;;13.27;;
8327;SDS011;4201;48.754;8.864;2023-08-21T02:24:38;15.83;;;11.37;;
8327;SDS011;4201;48.754;8.864;2023-08-21T02:27:04;12.83;;;11.30;;
8327;SDS011;4201;48.754;8.864;2023-08-21T02:29:30;15.63;;;12.97;;
8327;SDS011;4201;48.754;8.864;2023-08-21T02:31:58;12.10;;;10.90;;
8327;SDS011;4201;48.754;8.864;2023-08-21T02:34:24;14.37;;;11.83;;
8327;SDS011;4201;48.754;8.864;2023-08-21T02:36:51;12.87;;;11.10;;
8327;SDS011;4201;48.754;8.864;2023-08-21T02:39:18;12.90;;;11.60;;
8327;SDS011;4201;48.754;8.864;2023-08-21T02:41:44;12.70;;;11.50;;
8327;SDS011;4201;48.754;8.864;2023-08-21T02:44:10;13.83;;;12.53;;
8327;SDS011;4201;48.754;8.864;2023-08-21T02:46:36;15.03;;;11.87;;
8327;SDS011;4201;48.754;8.864;2023-08-21T02:49:04;12.37;;;11.17;;
8327;SDS011;4201;48.754;8.864;2023-08-21T02:51:30;11.87;;;10.67;;
8327;SDS011;4201;48.754;8.864;2023-08-21T02:53:57;13.17;;;11.87;;
8327;SDS011;4201;48.754;8.864;2023-08-21T02:56:23;11.33;;;10.20;;
8327;SDS011;4201;48.754;8.864;2023-08-21T02:58:49;11.97;;;10.77;;
8327;SDS011;4201;48.754;8.864;2023-08-21T03:01:15;11.17;;;10.00;;
8327;SDS011;4201;48.754;8.864;2023-08-21T03:03:42;14.87;;;11.77;;
8327;SDS011;4201;48.754;8.864;2023-08-21T03:06:09;13.00;;;10.43;;
8327;SDS011;4201;48.754;8.864;2023-08-21T03:08:35;13.03;;;11.63;;
8327;SDS011;4201;48.754;8.864;2023-08-21T03:11:02;12.27;;;10.70;;
8327;SDS011;4201;48.754;8.864;2023-08-21T03:13:28;14.73;;;11.03;;
8327;SDS011;4201;48.754;8.864;2023-08-21T03:15:54;11.43;;;10.10;;
8327;SDS011;4201;48.754;8.864;2023-08-21T03:18:21;12.40;;;10.17;;
8327;SDS011;4201;48.754;8.864;2023-08-21T03:20:47;11.60;;;10.13;;
8327;SDS011;4201;48.754;8.864;2023-08-21T03:23:14;11.87;;;10.43;;
8327;SDS011;4201;48.754;8.864;2023-08-21T03:25:41;12.07;;;10.03;;
8327;SDS011;4201;48.754;8.864;2023-08-21T03:28:07;13.27;;;11.50;;
8327;SDS011;4201;48.754;8.864;2023-08-21T03:30:33;13.10;;;11.80;;
8327;SDS011;4201;48.754;8.864;2023-08-21T03:32:59;14.07;;;11.40;;
8327;SDS011;4201;48.754;8.864;2023-08-21T03:35:26;12.80;;;11.20;;
8327;SDS011;4201;48.754;8.864;2023-08-21T03:37:52;14.90;;;11.43;;
8327;SDS011;4201;48.754;8.864;2023-08-21T03:40:19;14.30;;;10.37;;
8327;SDS011;4201;48.754;8.864;2023-08-21T03:42:46;14.03;;;12.20;;
8327;SDS011;4201;48.754;8.864;2023-08-21T03:45:12;17.90;;;11.27;;
8327;SDS011;4201;48.754;8.864;2023-08-21T03:47:38;13.80;;;12.40;;
8327;SDS011;4201;48.754;8.864;2023-08-21T03:50:05;13.67;;;11.33;;
8327;SDS011;4201;48.754;8.864;2023-08-21T03:52:31;13.40;;;11.07;;
8327;SDS011;4201;48.754;8.864;2023-08-21T03:54:58;16.93;;;11.70;;
8327;SDS011;4201;48.754;8.864;2023-08-21T03:57:25;12.20;;;10.70;;
8327;SDS011;4201;48.754;8.864;2023-08-21T03:59:51;14.17;;;11.53;;
8327;SDS011;4201;48.754;8.864;2023-08-21T04:02:18;15.03;;;11.83;;
8327;SDS011;4201;48.754;8.864;2023-08-21T04:04:44;12.57;;;10.33;;
8327;SDS011;4201;48.754;8.864;2023-08-21T04:07:10;14.70;;;12.50;;
8327;SDS011;4201;48.754;8.864;2023-08-21T04:09:36;12.63;;;10.20;;
8327;SDS011;4201;48.754;8.864;2023-08-21T04:12:03;13.40;;;10.90;;
8327;SDS011;4201;48.754;8.864;2023-08-21T04:14:30;15.73;;;13.03;;
8327;SDS011;4201;48.754;8.864;2023-08-21T04:16:57;15.10;;;13.47;;
8327;SDS011;4201;48.754;8.864;2023-08-21T04:19:23;19.03;;;13.97;;
8327;SDS011;4201;48.754;8.864;2023-08-21T04:21:50;15.80;;;12.80;;
8327;SDS011;4201;48.754;8.864;2023-08-21T04:24:16;13.60;;;12.20;;
8327;SDS011;4201;48.754;8.864;2023-08-21T04:26:42;16.93;;;14.43;;
8327;SDS011;4201;48.754;8.864;2023-08-21T04:29:09;14.67;;;13.17;;
8327;SDS011;4201;48.754;8.864;2023-08-21T04:31:36;15.43;;;13.83;;
8327;SDS011;4201;48.754;8.864;2023-08-21T04:34:03;22.40;;;13.40;;
8327;SDS011;4201;48.754;8.864;2023-08-21T04:36:29;20.67;;;13.30;;
8327;SDS011;4201;48.754;8.864;2023-08-21T04:38:55;13.80;;;11.93;;
8327;SDS011;4201;48.754;8.864;2023-08-21T04:41:21;13.03;;;11.70;;
8327;SDS011;4201;48.754;8.864;2023-08-21T04:43:48;13.40;;;12.10;;
8327;SDS011;4201;48.754;8.864;2023-08-21T04:46:14;12.70;;;11.33;;
8327;SDS011;4201;48.754;8.864;2023-08-21T04:48:41;13.70;;;11.67;;
8327;SDS011;4201;48.754;8.864;2023-08-21T04:51:08;14.63;;;11.80;;
8327;SDS011;4201;48.754;8.864;2023-08-21T04:53:34;14.13;;;11.73;;
8327;SDS011;4201;48.754;8.864;2023-08-21T04:56:01;12.00;;;10.80;;
8327;SDS011;4201;48.754;8.864;2023-08-21T04:58:28;11.10;;;10.03;;
8327;SDS011;4201;48.754;8.864;2023-08-21T05:00:54;17.90;;;15.47;;
8327;SDS011;4201;48.754;8.864;2023-08-21T05:03:20;13.97;;;11.50;;
8327;SDS011;4201;48.754;8.864;2023-08-21T05:05:53;12.77;;;10.93;;
8327;SDS011;4201;48.754;8.864;2023-08-21T05:08:20;12.97;;;9.80;;
8327;SDS011;4201;48.754;8.864;2023-08-21T05:10:46;13.20;;;10.23;;
8327;SDS011;4201;48.754;8.864;2023-08-21T05:13:12;11.10;;;9.90;;
8327;SDS011;4201;48.754;8.864;2023-08-21T05:15:42;11.40;;;10.20;;
8327;SDS011;4201;48.754;8.864;2023-08-21T05:18:08;10.80;;;8.83;;
8327;SDS011;4201;48.754;8.864;2023-08-21T05:20:34;11.47;;;9.30;;
8327;SDS011;4201;48.754;8.864;2023-08-21T05:23:02;13.20;;;9.47;;
8327;SDS011;4201;48.754;8.864;2023-08-21T05:25:29;11.30;;;9.77;;
8327;SDS011;4201;48.754;8.864;2023-08-21T05:27:57;12.83;;;10.17;;
8327;SDS011;4201;48.754;8.864;2023-08-21T05:30:24;12.30;;;9.20;;
8327;SDS011;4201;48.754;8.864;2023-08-21T05:32:51;10.37;;;8.90;;
8327;SDS011;4201;48.754;8.864;2023-08-21T05:35:17;11.80;;;9.40;;
8327;SDS011;4201;48.754;8.864;2023-08-21T05:37:43;11.60;;;8.57;;
8327;SDS011;4201;48.754;8.864;2023-08-21T05:40:11;13.47;;;9.00;;
8327;SDS011;4201;48.754;8.864;2023-08-21T05:42:37;11.73;;;9.70;;
8327;SDS011;4201;48.754;8.864;2023-08-21T05:45:04;11.53;;;8.53;;
8327;SDS011;4201;48.754;8.864;2023-08-21T05:47:31;13.23;;;8.70;;
8327;SDS011;4201;48.754;8.864;2023-08-21T05:49:57;12.93;;;9.10;;
8327;SDS011;4201;48.754;8.864;2023-08-21T05:52:23;11.23;;;8.73;;
8327;SDS011;4201;48.754;8.864;2023-08-21T05:54:50;11.10;;;9.93;;
8327;SDS011;4201;48.754;8.864;2023-08-21T05:57:17;11.87;;;7.93;;
8327;SDS011;4201;48.754;8.864;2023-08-21T05:59:44;12.43;;;8.80;;
8327;SDS011;4201;48.754;8.864;2023-08-21T06:02:11;10.90;;;8.47;;
8327;SDS011;4201;48.754;8.864;2023-08-21T06:04:37;9.40;;;8.53;;
8327;SDS011;4201;48.754;8.864;2023-08-21T06:07:03;13.43;;;8.33;;
8327;SDS011;4201;48.754;8.864;2023-08-21T06:09:30;13.63;;;8.70;;
8327;SDS011;4201;48.754;8.864;2023-08-21T06:11:56;8.73;;;7.83;;
8327;SDS011;4201;48.754;8.864;2023-08-21T06:14:24;8.57;;;7.50;;
8327;SDS011;4201;48.754;8.864;2023-08-21T06:16:54;9.80;;;8.00;;
8327;SDS011;4201;48.754;8.864;2023-08-21T06:19:20;16.27;;;8.77;;
8327;SDS011;4201;48.754;8.864;2023-08-21T06:21:46;11.97;;;7.97;;
8327;SDS011;4201;48.754;8.864;2023-08-21T06:24:12;22.43;;;8.83;;
8327;SDS011;4201;48.754;8.864;2023-08-21T06:26:39;9.40;;;8.30;;
8327;SDS011;4201;48.754;8.864;2023-08-21T06:29:06;9.90;;;7.97;;
8327;SDS011;4201;48.754;8.864;2023-08-21T06:31:33;7.33;;;6.63;;
8327;SDS011;4201;48.754;8.864;2023-08-21T06:33:59;10.37;;;7.90;;
8327;SDS011;4201;48.754;8.864;2023-08-21T06:36:26;8.60;;;7.70;;
8327;SDS011;4201;48.754;8.864;2023-08-21T06:38:52;12.33;;;8.63;;
8327;SDS011;4201;48.754;8.864;2023-08-21T06:41:18;9.17;;;8.20;;
8327;SDS011;4201;48.754;8.864;2023-08-21T06:43:44;11.10;;;8.73;;
8327;SDS011;4201;48.754;8.864;2023-08-21T06:46:11;9.70;;;8.40;;
8327;SDS011;4201;48.754;8.864;2023-08-21T06:48:39;10.40;;;8.70;;
8327;SDS011;4201;48.754;8.864;2023-08-21T06:51:05;13.13;;;8.30;;
8327;SDS011;4201;48.754;8.864;2023-08-21T06:53:32;9.10;;;7.80;;
8327;SDS011;4201;48.754;8.864;2023-08-21T06:55:58;7.90;;;7.10;;
8327;SDS011;4201;48.754;8.864;2023-08-21T06:58:24;10.87;;;7.57;;
8327;SDS011;4201;48.754;8.864;2023-08-21T07:00:50;7.77;;;6.93;;
8327;SDS011;4201;48.754;8.864;2023-08-21T07:03:17;10.23;;;7.93;;
8327;SDS011;4201;48.754;8.864;2023-08-21T07:05:47;8.53;;;7.37;;
8327;SDS011;4201;48.754;8.864;2023-08-21T07:08:19;8.90;;;7.30;;
8327;SDS011;4201;48.754;8.864;2023-08-21T07:10:45;9.93;;;7.30;;
8327;SDS011;4201;48.754;8.864;2023-08-21T07:13:11;7.60;;;6.90;;
8327;SDS011;4201;48.754;8.864;2023-08-21T07:15:37;8.43;;;7.60;;
8327;SDS011;4201;48.754;8.864;2023-08-21T07:18:04;14.03;;;8.67;;
8327;SDS011;4201;48.754;8.864;2023-08-21T07:20:30;9.80;;;7.83;;
8327;SDS011;4201;48.754;8.864;2023-08-21T07:22:57;10.67;;;6.70;;
8327;SDS011;4201;48.754;8.864;2023-08-21T07:25:24;8.80;;;7.07;;
8327;SDS011;4201;48.754;8.864;2023-08-21T07:27:50;13.13;;;6.37;;
8327;SDS011;4201;48.754;8.864;2023-08-21T07:30:18;8.80;;;7.90;;
8327;SDS011;4201;48.754;8.864;2023-08-21T07:32:45;7.67;;;6.87;;
8327;SDS011;4201;48.754;8.864;2023-08-21T07:35:11;7.50;;;6.53;;
8327;SDS011;4201;48.754;8.864;2023-08-21T07:37:37;10.23;;;6.40;;
8327;SDS011;4201;48.754;8.864;2023-08-21T07:40:08;14.93;;;7.13;;
8327;SDS011;4201;48.754;8.864;2023-08-21T07:42:34;9.20;;;7.17;;
8327;SDS011;4201;48.754;8.864;2023-08-21T07:45:00;7.20;;;6.43;;
8327;SDS011;4201;48.754;8.864;2023-08-21T07:47:27;13.20;;;6.83;;
8327;SDS011;4201;48.754;8.864;2023-08-21T07:49:53;10.20;;;7.00;;
8327;SDS011;4201;48.754;8.864;2023-08-21T07:52:20;13.00;;;6.83;;
8327;SDS011;4201;48.754;8.864;2023-08-21T07:54:46;9.60;;;6.70;;
8327;SDS011;4201;48.754;8.864;2023-08-21T07:57:14;11.50;;;7.50;;
8327;SDS011;4201;48.754;8.864;2023-08-21T07:59:40;12.50;;;7.73;;
8327;SDS011;4201;48.754;8.864;2023-08-21T08:02:06;8.30;;;7.00;;
8327;SDS011;4201;48.754;8.864;2023-08-21T08:04:33;13.37;;;8.10;;
8327;SDS011;4201;48.754;8.864;2023-08-21T08:06:59;14.13;;;8.93;;
8327;SDS011;4201;48.754;8.864;2023-08-21T08:09:25;10.13;;;7.50;;
8327;SDS011;4201;48.754;8.864;2023-08-21T08:11:51;10.03;;;7.17;;
8327;SDS011;4201;48.754;8.864;2023-08-21T08:14:19;14.17;;;7.07;;
8327;SDS011;4201;48.754;8.864;2023-08-21T08:16:45;13.80;;;7.30;;
8327;SDS011;4201;48.754;8.864;2023-08-21T08:19:12;8.17;;;7.37;;
8327;SDS011;4201;48.754;8.864;2023-08-21T08:21:38;13.53;;;7.20;;
8327;SDS011;4201;48.754;8.864;2023-08-21T08:24:05;10.03;;;7.30;;
8327;SDS011;4201;48.754;8.864;2023-08-21T08:26:31;9.80;;;6.93;;
8327;SDS011;4201;48.754;8.864;2023-08-21T08:28:57;9.60;;;7.23;;
8327;SDS011;4201;48.754;8.864;2023-08-21T08:31:25;9.40;;;6.60;;
8327;SDS011;4201;48.754;8.864;2023-08-21T08:33:52;12.73;;;7.77;;
8327;SDS011;4201;48.754;8.864;2023-08-21T08:36:18;9.97;;;7.13;;
8327;SDS011;4201;48.754;8.864;2023-08-21T08:38:45;8.80;;;6.93;;
8327;SDS011;4201;48.754;8.864;2023-08-21T08:41:12;12.20;;;7.30;;
8327;SDS011;4201;48.754;8.864;2023-08-21T08:43:39;10.40;;;7.70;;
8327;SDS011;4201;48.754;8.864;2023-08-21T08:46:06;9.13;;;7.27;;
8327;SDS011;4201;48.754;8.864;2023-08-21T08:48:34;11.30;;;8.37;;
8327;SDS011;4201;48.754;8.864;2023-08-21T08:51:00;9.40;;;8.30;;
8327;SDS011;4201;48.754;8.864;2023-08-21T08:53:28;11.50;;;8.27;;
8327;SDS011;4201;48.754;8.864;2023-08-21T08:55:55;15.27;;;8.90;;
8327;SDS011;4201;48.754;8.864;2023-08-21T08:58:21;20.00;;;10.33;;
8327;SDS011;4201;48.754;8.864;2023-08-21T09:00:48;11.93;;;7.70;;
8327;SDS011;4201;48.754;8.864;2023-08-21T09:03:14;10.97;;;7.40;;
8327;SDS011;4201;48.754;8.864;2023-08-21T09:05:42;10.53;;;7.73;;
8327;SDS011;4201;48.754;8.864;2023-08-21T09:08:11;10.00;;;8.27;;
8327;SDS011;4201;48.754;8.864;2023-08-21T09:10:38;9.40;;;7.60;;
8327;SDS011;4201;48.754;8.864;2023-08-21T09:13:08;9.00;;;6.53;;
8327;SDS011;4201;48.754;8.864;2023-08-21T09:15:35;9.00;;;6.07;;
8327;SDS011;4201;48.754;8.864;2023-08-21T09:18:01;8.50;;;6.23;;
8327;SDS011;4201;48.754;8.864;2023-08-21T09:20:30;9.87;;;5.87;;
8327;SDS011;4201;48.754;8.864;2023-08-21T09:23:02;8.73;;;6.20;;
8327;SDS011;4201;48.754;8.864;2023-08-21T09:25:31;13.80;;;6.90;;
8327;SDS011;4201;48.754;8.864;2023-08-21T09:27:59;10.27;;;6.37;;
8327;SDS011;4201;48.754;8.864;2023-08-21T09:30:25;8.73;;;6.10;;
8327;SDS011;4201;48.754;8.864;2023-08-21T09:32:52;7.67;;;6.13;;
8327;SDS011;4201;48.754;8.864;2023-08-21T09:35:19;13.23;;;7.10;;
8327;SDS011;4201;48.754;8.864;2023-08-21T09:37:46;9.73;;;6.10;;
8327;SDS011;4201;48.754;8.864;2023-08-21T09:40:13;9.30;;;6.60;;
8327;SDS011;4201;48.754;8.864;2023-08-21T09:42:40;7.23;;;5.63;;
8327;SDS011;4201;48.754;8.864;2023-08-21T09:45:07;7.77;;;6.40;;
8327;SDS011;4201;48.754;8.864;2023-08-21T09:47:33;9.67;;;6.77;;
8327;SDS011;4201;48.754;8.864;2023-08-21T09:50:01;9.87;;;6.73;;
8327;SDS011;4201;48.754;8.864;2023-08-21T09:52:27;16.63;;;7.57;;
8327;SDS011;4201;48.754;8.864;2023-08-21T09:54:54;8.27;;;6.40;;
8327;SDS011;4201;48.754;8.864;2023-08-21T09:57:22;15.03;;;7.10;;
8327;SDS011;4201;48.754;8.864;2023-08-21T09:59:50;11.10;;;6.07;;
8327;SDS011;4201;48.754;8.864;2023-08-21T10:02:17;9.63;;;6.10;;
8327;SDS011;4201;48.754;8.864;2023-08-21T10:04:43;7.47;;;6.70;;
8327;SDS011;4201;48.754;8.864;2023-08-21T10:07:11;7.23;;;6.50;;
8327;SDS011;4201;48.754;8.864;2023-08-21T10:09:38;8.13;;;6.47;;
8327;SDS011;4201;48.754;8.864;2023-08-21T10:12:05;9.50;;;6.37;;
8327;SDS011;4201;48.754;8.864;2023-08-21T10:14:33;8.30;;;6.00;;
8327;SDS011;4201;48.754;8.864;2023-08-21T10:16:59;7.73;;;5.83;;
8327;SDS011;4201;48.754;8.864;2023-08-21T10:19:30;7.63;;;6.20;;
8327;SDS011;4201;48.754;8.864;2023-08-21T10:21:56;10.40;;;6.43;;
8327;SDS011;4201;48.754;8.864;2023-08-21T10:24:27;8.10;;;6.50;;
8327;SDS011;4201;48.754;8.864;2023-08-21T10:26:57;8.70;;;7.03;;
8327;SDS011;4201;48.754;8.864;2023-08-21T10:29:23;7.80;;;6.00;;
8327;SDS011;4201;48.754;8.864;2023-08-21T10:31:58;8.90;;;6.30;;
8327;SDS011;4201;48.754;8.864;2023-08-21T10:34:25;10.40;;;6.90;;
8327;SDS011;4201;48.754;8.864;2023-08-21T10:37:06;8.43;;;6.50;;
8327;SDS011;4201;48.754;8.864;2023-08-21T10:39:35;8.73;;;6.70;;
8327;SDS011;4201;48.754;8.864;2023-08-21T10:42:03;9.13;;;7.13;;
8327;SDS011;4201;48.754;8.864;2023-08-21T10:44:33;8.40;;;6.43;;
8327;SDS011;4201;48.754;8.864;2023-08-21T10:47:13;6.73;;;5.90;;
8327;SDS011;4201;48.754;8.864;2023-08-21T10:49:41;13.23;;;6.60;;
8327;SDS011;4201;48.754;8.864;2023-08-21T10:52:08;6.30;;;5.40;;
8327;SDS011;4201;48.754;8.864;2023-08-21T10:54:42;8.93;;;6.80;;
8327;SDS011;4201;48.754;8.864;2023-08-21T10:57:08;11.80;;;7.97;;
8327;SDS011;4201;48.754;8.864;2023-08-21T10:59:34;8.23;;;6.47;;
8327;SDS011;4201;48.754;8.864;2023-08-21T11:02:01;11.10;;;6.77;;
8327;SDS011;4201;48.754;8.864;2023-08-21T11:04:29;9.23;;;6.97;;
8327;SDS011;4201;48.754;8.864;2023-08-21T11:07:05;17.20;;;6.70;;
8327;SDS011;4201;48.754;8.864;2023-08-21T11:09:32;8.87;;;6.57;;
8327;SDS011;4201;48.754;8.864;2023-08-21T11:12:04;7.27;;;6.53;;
8327;SDS011;4201;48.754;8.864;2023-08-21T11:14:30;7.60;;;6.60;;
8327;SDS011;4201;48.754;8.864;2023-08-21T11:16:58;13.83;;;6.80;;
8327;SDS011;4201;48.754;8.864;2023-08-21T11:19:25;9.13;;;6.83;;
8327;SDS011;4201;48.754;8.864;2023-08-21T11:21:52;9.80;;;6.77;;
8327;SDS011;4201;48.754;8.864;2023-08-21T11:24:18;12.90;;;6.90;;
8327;SDS011;4201;48.754;8.864;2023-08-21T11:26:45;9.13;;;7.00;;
8327;SDS011;4201;48.754;8.864;2023-08-21T11:29:11;11.10;;;6.40;;
8327;SDS011;4201;48.754;8.864;2023-08-21T11:31:38;8.20;;;6.83;;
8327;SDS011;4201;48.754;8.864;2023-08-21T11:34:05;8.80;;;7.03;;
8327;SDS011;4201;48.754;8.864;2023-08-21T11:36:31;8.57;;;6.90;;
8327;SDS011;4201;48.754;8.864;2023-08-21T11:38:59;9.53;;;6.50;;
8327;SDS011;4201;48.754;8.864;2023-08-21T11:41:26;8.97;;;7.07;;
8327;SDS011;4201;48.754;8.864;2023-08-21T11:43:52;13.00;;;6.83;;
8327;SDS011;4201;48.754;8.864;2023-08-21T11:46:18;9.40;;;7.23;;
8327;SDS011;4201;48.754;8.864;2023-08-21T11:48:44;10.60;;;6.87;;
8327;SDS011;4201;48.754;8.864;2023-08-21T11:51:11;9.33;;;5.90;;
8327;SDS011;4201;48.754;8.864;2023-08-21T11:53:38;10.77;;;6.93;;
8327;SDS011;4201;48.754;8.864;2023-08-21T11:56:10;9.53;;;7.10;;
8327;SDS011;4201;48.754;8.864;2023-08-21T11:58:37;9.67;;;6.97;;
8327;SDS011;4201;48.754;8.864;2023-08-21T12:01:04;8.53;;;6.60;;
8327;SDS011;4201;48.754;8.864;2023-08-21T12:03:30;10.23;;;7.17;;
8327;SDS011;4201;48.754;8.864;2023-08-21T12:05:56;8.30;;;6.50;;
8327;SDS011;4201;48.754;8.864;2023-08-21T12:08:22;12.00;;;6.10;;
8327;SDS011;4201;48.754;8.864;2023-08-21T12:10:49;10.20;;;5.97;;
8327;SDS011;4201;48.754;8.864;2023-08-21T12:13:18;11.90;;;7.27;;
8327;SDS011;4201;48.754;8.864;2023-08-21T12:15:44;13.80;;;6.27;;
8327;SDS011;4201;48.754;8.864;2023-08-21T12:18:11;8.67;;;5.90;;
8327;SDS011;4201;48.754;8.864;2023-08-21T12:20:37;7.53;;;6.30;;
8327;SDS011;4201;48.754;8.864;2023-08-21T12:23:03;9.37;;;6.83;;
8327;SDS011;4201;48.754;8.864;2023-08-21T12:25:30;8.03;;;6.63;;
8327;SDS011;4201;48.754;8.864;2023-08-21T12:27:57;10.20;;;6.83;;
8327;SDS011;4201;48.754;8.864;2023-08-21T12:30:24;9.90;;;6.33;;
8327;SDS011;4201;48.754;8.864;2023-08-21T12:32:51;7.07;;;6.13;;
8327;SDS011;4201;48.754;8.864;2023-08-21T12:35:17;11.33;;;6.70;;
8327;SDS011;4201;48.754;8.864;2023-08-21T12:37:43;9.97;;;6.80;;
8327;SDS011;4201;48.754;8.864;2023-08-21T12:40:09;10.80;;;7.03;;
8327;SDS011;4201;48.754;8.864;2023-08-21T12:42:36;10.23;;;6.37;;
8327;SDS011;4201;48.754;8.864;2023-08-21T12:45:02;9.73;;;6.10;;
8327;SDS011;4201;48.754;8.864;2023-08-21T12:47:30;10.60;;;6.37;;
8327;SDS011;4201;48.754;8.864;2023-08-21T12:49:56;12.40;;;7.10;;
8327;SDS011;4201;48.754;8.864;2023-08-21T12:52:22;9.93;;;6.13;;
8327;SDS011;4201;48.754;8.864;2023-08-21T12:54:49;8.43;;;6.00;;
8327;SDS011;4201;48.754;8.864;2023-08-21T12:57:15;10.20;;;7.20;;
8327;SDS011;4201;48.754;8.864;2023-08-21T12:59:41;9.57;;;7.33;;
8327;SDS011;4201;48.754;8.864;2023-08-21T13:02:08;10.37;;;6.67;;
8327;SDS011;4201;48.754;8.864;2023-08-21T13:04:35;10.70;;;7.40;;
8327;SDS011;4201;48.754;8.864;2023-08-21T13:07:02;10.33;;;6.77;;
8327;SDS011;4201;48.754;8.864;2023-08-21T13:09:28;9.40;;;7.23;;
8327;SDS011;4201;48.754;8.864;2023-08-21T13:11:54;14.63;;;7.87;;
8327;SDS011;4201;48.754;8.864;2023-08-21T13:14:21;7.00;;;6.30;;
8327;SDS011;4201;48.754;8.864;2023-08-21T13:16:47;9.70;;;6.30;;
8327;SDS011;4201;48.754;8.864;2023-08-21T13:19:14;11.40;;;7.20;;
8327;SDS011;4201;48.754;8.864;2023-08-21T13:21:41;12.10;;;7.30;;
8327;SDS011;4201;48.754;8.864;2023-08-21T13:24:08;11.47;;;6.80;;
8327;SDS011;4201;48.754;8.864;2023-08-21T13:26:34;10.03;;;7.30;;
8327;SDS011;4201;48.754;8.864;2023-08-21T13:29:00;11.80;;;7.33;;
8327;SDS011;4201;48.754;8.864;2023-08-21T13:31:26;9.27;;;7.60;;
8327;SDS011;4201;48.754;8.864;2023-08-21T13:33:53;11.10;;;6.70;;
8327;SDS011;4201;48.754;8.864;2023-08-21T13:36:20;19.03;;;8.47;;
8327;SDS011;4201;48.754;8.864;2023-08-21T13:38:48;12.20;;;7.00;;
8327;SDS011;4201;48.754;8.864;2023-08-21T13:41:14;11.47;;;5.80;;
8327;SDS011;4201;48.754;8.864;2023-08-21T13:43:40;11.70;;;7.43;;
8327;SDS011;4201;48.754;8.864;2023-08-21T13:46:06;10.17;;;7.10;;
8327;SDS011;4201;48.754;8.864;2023-08-21T13:48:33;8.63;;;7.07;;
8327;SDS011;4201;48.754;8.864;2023-08-21T13:50:59;9.47;;;6.57;;
8327;SDS011;4201;48.754;8.864;2023-08-21T13:53:26;12.80;;;7.07;;
8327;SDS011;4201;48.754;8.864;2023-08-21T13:55:53;7.77;;;6.70;;
8327;SDS011;4201;48.754;8.864;2023-08-21T13:58:20;9.90;;;7.17;;
8327;SDS011;4201;48.754;8.864;2023-08-21T14:00:46;11.63;;;7.50;;
8327;SDS011;4201;48.754;8.864;2023-08-21T14:03:13;12.20;;;7.73;;
8327;SDS011;4201;48.754;8.864;2023-08-21T14:05:39;10.23;;;7.63;;
8327;SDS011;4201;48.754;8.864;2023-08-21T14:08:06;10.57;;;6.80;;
8327;SDS011;4201;48.754;8.864;2023-08-21T14:10:33;10.40;;;7.20;;
8327;SDS011;4201;48.754;8.864;2023-08-21T14:13:00;14.77;;;7.63;;
8327;SDS011;4201;48.754;8.864;2023-08-21T14:15:28;9.27;;;7.30;;
8327;SDS011;4201;48.754;8.864;2023-08-21T14:17:55;10.30;;;7.60;;
8327;SDS011;4201;48.754;8.864;2023-08-21T14:20:21;8.27;;;7.37;;
8327;SDS011;4201;48.754;8.864;2023-08-21T14:22:47;11.00;;;6.57;;
8327;SDS011;4201;48.754;8.864;2023-08-21T14:25:14;17.43;;;7.03;;
8327;SDS011;4201;48.754;8.864;2023-08-21T14:27:40;10.73;;;7.17;;
8327;SDS011;4201;48.754;8.864;2023-08-21T14:30:08;12.93;;;6.50;;
8327;SDS011;4201;48.754;8.864;2023-08-21T14:32:35;12.47;;;6.90;;
8327;SDS011;4201;48.754;8.864;2023-08-21T14:35:02;9.97;;;6.60;;
8327;SDS011;4201;48.754;8.864;2023-08-21T14:37:29;9.03;;;7.00;;
8327;SDS011;4201;48.754;8.864;2023-08-21T14:39:55;8.33;;;6.67;;
8327;SDS011;4201;48.754;8.864;2023-08-21T14:42:21;9.70;;;7.00;;
8327;SDS011;4201;48.754;8.864;2023-08-21T14:44:48;8.60;;;7.00;;
8327;SDS011;4201;48.754;8.864;2023-08-21T14:47:15;15.17;;;8.33;;
8327;SDS011;4201;48.754;8.864;2023-08-21T14:49:42;7.83;;;6.90;;
8327;SDS011;4201;48.754;8.864;2023-08-21T14:52:08;11.23;;;7.57;;
8327;SDS011;4201;48.754;8.864;2023-08-21T14:54:34;8.73;;;7.43;;
8327;SDS011;4201;48.754;8.864;2023-08-21T14:57:01;10.70;;;7.23;;